createdAt,value
2018-12-05T00:01:09.842Z,12.63
2018-12-05T00:03:38.316Z,12.83
2018-12-05T00:06:06.734Z,12.93
2018-12-05T00:08:35.214Z,13.00
2018-12-05T00:11:03.642Z,12.23
2018-12-05T00:13:32.075Z,10.87
2018-12-05T00:16:00.490Z,11.97
2018-12-05T00:18:28.921Z,11.20
2018-12-05T00:20:57.410Z,11.40
2018-12-05T00:23:25.870Z,11.63
2018-12-05T00:25:54.287Z,10.93
2018-12-05T00:28:22.741Z,12.60
2018-12-05T00:30:51.205Z,11.97
2018-12-05T00:33:19.652Z,12.27
2018-12-05T00:35:48.100Z,12.40
2018-12-05T00:38:16.568Z,12.07
2018-12-05T00:40:45.045Z,12.33
2018-12-05T00:43:13.536Z,11.70
2018-12-05T00:45:41.952Z,11.47
2018-12-05T00:48:10.410Z,10.93
2018-12-05T00:50:38.860Z,10.47
2018-12-05T00:53:07.331Z,11.37
2018-12-05T00:55:35.770Z,10.27
2018-12-05T00:58:04.187Z,9.77
2018-12-05T01:00:32.656Z,10.77
2018-12-05T01:03:01.067Z,10.43
2018-12-05T01:05:29.508Z,10.17
2018-12-05T01:07:57.969Z,10.03
2018-12-05T01:10:26.424Z,11.47
2018-12-05T01:12:54.862Z,11.30
2018-12-05T01:15:23.308Z,10.50
2018-12-05T01:17:51.734Z,11.07
2018-12-05T01:20:20.165Z,10.60
2018-12-05T01:22:48.579Z,10.80
2018-12-05T01:25:17.014Z,11.10
2018-12-05T01:27:45.572Z,10.90
2018-12-05T01:30:13.979Z,11.40
2018-12-05T01:32:42.435Z,11.57
2018-12-05T01:35:10.836Z,11.47
2018-12-05T01:37:39.274Z,12.17
2018-12-05T01:40:07.691Z,11.87
2018-12-05T01:42:36.140Z,11.83
2018-12-05T01:45:04.632Z,12.20
2018-12-05T01:47:33.071Z,11.80
2018-12-05T01:50:01.474Z,11.87
2018-12-05T01:52:29.939Z,11.40
2018-12-05T01:54:58.378Z,11.40
2018-12-05T01:57:26.790Z,12.10
2018-12-05T01:59:55.234Z,11.63
2018-12-05T02:02:23.653Z,10.77
2018-12-05T02:04:52.082Z,10.73
2018-12-05T02:07:20.549Z,10.53
2018-12-05T02:09:48.991Z,10.97
2018-12-05T02:12:17.447Z,11.43
2018-12-05T02:14:45.869Z,11.83
2018-12-05T02:17:14.313Z,11.37
2018-12-05T02:19:42.740Z,10.77
2018-12-05T02:22:11.174Z,11.03
2018-12-05T02:24:39.626Z,11.27
2018-12-05T02:27:08.090Z,10.90
2018-12-05T02:29:41.889Z,11.17
2018-12-05T02:32:10.325Z,10.93
2018-12-05T02:34:38.771Z,11.77
2018-12-05T02:37:07.192Z,11.10
2018-12-05T02:39:35.590Z,11.73
2018-12-05T02:42:04.024Z,11.63
2018-12-05T02:44:32.436Z,12.00
2018-12-05T02:47:00.866Z,12.23
2018-12-05T02:49:29.277Z,13.63
2018-12-05T02:51:57.712Z,12.93
2018-12-05T02:54:26.142Z,12.43
2018-12-05T02:56:54.574Z,11.33
2018-12-05T02:59:23.007Z,12.40
2018-12-05T03:01:51.483Z,12.40
2018-12-05T03:04:23.414Z,12.03
2018-12-05T03:06:51.833Z,11.87
2018-12-05T03:09:20.273Z,10.33
2018-12-05T03:11:48.674Z,11.80
2018-12-05T03:14:17.139Z,10.83
2018-12-05T03:16:45.553Z,11.60
2018-12-05T03:19:14.000Z,11.10
2018-12-05T03:21:42.419Z,11.47
2018-12-05T03:24:10.903Z,12.47
2018-12-05T03:26:39.296Z,11.47
2018-12-05T03:29:07.757Z,11.93
2018-12-05T03:31:36.211Z,11.63
2018-12-05T03:34:04.654Z,11.47
2018-12-05T03:36:33.080Z,11.07
2018-12-05T03:39:01.502Z,11.13
2018-12-05T03:41:29.926Z,11.87
2018-12-05T03:43:58.335Z,11.63
2018-12-05T03:46:26.796Z,12.03
2018-12-05T03:48:55.238Z,12.23
2018-12-05T03:51:23.688Z,12.07
2018-12-05T03:53:52.118Z,11.03
2018-12-05T03:56:20.555Z,12.60
2018-12-05T03:58:48.955Z,12.50
2018-12-05T04:01:17.448Z,11.93
2018-12-05T04:03:45.867Z,11.97
2018-12-05T04:06:14.395Z,10.83
2018-12-05T04:08:42.836Z,11.17
2018-12-05T04:11:11.341Z,10.60
2018-12-05T04:13:39.885Z,11.53
2018-12-05T04:16:08.366Z,12.20
2018-12-05T04:18:36.802Z,10.40
2018-12-05T04:21:05.237Z,10.80
2018-12-05T04:23:33.647Z,11.83
2018-12-05T04:26:02.105Z,12.23
2018-12-05T04:28:30.549Z,11.67
2018-12-05T04:30:58.983Z,11.80
2018-12-05T04:33:27.406Z,10.87
2018-12-05T04:35:55.829Z,10.93
2018-12-05T04:38:24.255Z,11.00
2018-12-05T04:40:52.723Z,10.47
2018-12-05T04:43:21.127Z,12.50
2018-12-05T04:45:49.545Z,11.13
2018-12-05T04:48:17.973Z,11.93
2018-12-05T04:50:46.375Z,12.87
2018-12-05T04:53:14.820Z,13.80
2018-12-05T04:55:43.261Z,13.33
2018-12-05T04:58:11.724Z,12.93
2018-12-05T05:00:40.148Z,11.87
2018-12-05T05:03:08.580Z,11.60
2018-12-05T05:05:37.011Z,12.40
2018-12-05T05:08:05.464Z,12.03
2018-12-05T05:10:33.962Z,12.33
2018-12-05T05:13:02.421Z,12.93
2018-12-05T05:15:30.821Z,12.60
2018-12-05T05:17:59.269Z,12.50
2018-12-05T05:20:27.723Z,11.80
2018-12-05T05:22:56.120Z,10.80
2018-12-05T05:25:24.729Z,12.33
2018-12-05T05:27:53.168Z,11.47
2018-12-05T05:30:21.610Z,11.33
2018-12-05T05:32:53.015Z,12.27
2018-12-05T05:35:22.655Z,11.70
2018-12-05T05:37:51.090Z,12.53
2018-12-05T05:40:19.566Z,10.67
2018-12-05T05:42:48.010Z,11.30
2018-12-05T05:45:16.438Z,12.50
2018-12-05T05:47:44.863Z,11.83
2018-12-05T05:50:13.318Z,11.23
2018-12-05T05:52:41.756Z,12.07
2018-12-05T05:55:10.167Z,11.70
2018-12-05T05:57:38.612Z,13.03
2018-12-05T06:00:07.958Z,12.60
2018-12-05T06:02:36.411Z,11.63
2018-12-05T06:05:05.543Z,10.13
2018-12-05T06:07:33.948Z,10.40
2018-12-05T06:10:02.379Z,9.33
2018-12-05T06:12:30.832Z,9.50
2018-12-05T06:14:59.343Z,10.27
2018-12-05T06:17:27.756Z,10.03
2018-12-05T06:19:56.196Z,9.63
2018-12-05T06:22:24.637Z,10.10
2018-12-05T06:24:53.178Z,9.57
2018-12-05T06:27:21.607Z,9.17
2018-12-05T06:29:50.012Z,9.73
2018-12-05T06:32:18.459Z,9.83
2018-12-05T06:34:46.900Z,10.73
2018-12-05T06:37:16.578Z,10.80
2018-12-05T06:39:45.059Z,11.13
2018-12-05T06:42:13.528Z,12.17
2018-12-05T06:44:42.048Z,10.83
2018-12-05T06:47:10.651Z,9.93
2018-12-05T06:49:39.147Z,10.73
2018-12-05T06:52:07.710Z,9.97
2018-12-05T06:54:36.248Z,10.00
2018-12-05T06:57:04.798Z,11.27
2018-12-05T06:59:40.001Z,10.47
2018-12-05T07:02:10.551Z,10.70
2018-12-05T07:04:39.064Z,12.50
2018-12-05T07:07:07.501Z,13.20
2018-12-05T07:09:35.954Z,12.50
2018-12-05T07:12:04.412Z,12.03
2018-12-05T07:14:32.883Z,12.43
2018-12-05T07:17:01.444Z,13.10
2018-12-05T07:19:29.975Z,12.43
2018-12-05T07:21:58.411Z,13.13
2018-12-05T07:24:28.000Z,13.60
2018-12-05T07:26:56.747Z,15.37
2018-12-05T07:29:25.236Z,16.20
2018-12-05T07:31:53.703Z,14.67
2018-12-05T07:34:22.192Z,12.63
2018-12-05T07:36:50.694Z,13.23
2018-12-05T07:39:19.219Z,12.63
2018-12-05T07:41:47.725Z,13.03
2018-12-05T07:44:16.413Z,13.30
2018-12-05T07:46:44.866Z,13.47
2018-12-05T07:49:13.358Z,13.30
2018-12-05T07:51:41.920Z,13.53
2018-12-05T07:54:10.420Z,13.93
2018-12-05T07:56:38.829Z,13.10
2018-12-05T07:59:07.323Z,13.53
2018-12-05T08:01:35.988Z,12.97
2018-12-05T08:04:04.483Z,12.97
2018-12-05T08:06:33.008Z,12.80
2018-12-05T08:09:10.988Z,12.97
2018-12-05T08:11:40.682Z,12.47
2018-12-05T08:14:09.248Z,12.77
2018-12-05T08:16:41.331Z,12.93
2018-12-05T08:19:10.185Z,13.60
2018-12-05T08:21:39.353Z,13.47
2018-12-05T08:24:08.095Z,12.60
2018-12-05T08:26:39.188Z,12.43
2018-12-05T08:29:07.701Z,12.00
2018-12-05T08:31:36.232Z,12.13
2018-12-05T08:34:04.785Z,12.00
2018-12-05T08:36:33.351Z,12.00
2018-12-05T08:39:01.966Z,12.20
2018-12-05T08:41:38.003Z,12.73
2018-12-05T08:44:06.962Z,11.57
2018-12-05T08:46:35.507Z,11.20
2018-12-05T08:49:05.637Z,10.77
2018-12-05T08:51:34.449Z,9.63
2018-12-05T08:54:03.703Z,10.60
2018-12-05T08:56:34.521Z,11.10
2018-12-05T08:59:03.458Z,10.27
2018-12-05T09:01:40.964Z,10.47
2018-12-05T09:04:17.028Z,10.83
2018-12-05T09:06:45.704Z,10.33
2018-12-05T09:12:02.936Z,9.13
2018-12-05T09:14:31.465Z,8.83
2018-12-05T09:17:02.671Z,9.37
2018-12-05T09:19:31.199Z,8.50
2018-12-05T09:21:59.776Z,9.73
2018-12-05T09:24:30.269Z,9.13
2018-12-05T09:26:58.961Z,9.60
2018-12-05T09:29:27.640Z,9.57
2018-12-05T09:31:56.507Z,9.00
2018-12-05T09:34:25.027Z,7.70
2018-12-05T09:36:53.533Z,8.20
2018-12-05T09:42:04.951Z,7.80
2018-12-05T09:44:33.469Z,7.73
2018-12-05T09:47:02.045Z,7.13
2018-12-05T09:49:31.342Z,7.23
2018-12-05T09:51:59.987Z,7.83
2018-12-05T09:54:28.542Z,7.70
2018-12-05T09:56:57.044Z,6.90
2018-12-05T09:59:25.924Z,7.43
2018-12-05T10:01:54.384Z,7.57
2018-12-05T10:04:22.932Z,8.10
2018-12-05T10:06:51.379Z,7.53
2018-12-05T10:09:20.342Z,7.87
2018-12-05T10:11:48.791Z,7.50
2018-12-05T10:14:17.348Z,7.77
2018-12-05T10:16:45.895Z,7.58
2018-12-05T10:19:14.488Z,7.13
2018-12-05T10:21:43.002Z,6.70
2018-12-05T10:24:11.559Z,7.30
2018-12-05T10:26:40.082Z,7.10
2018-12-05T10:29:08.682Z,7.00
2018-12-05T10:31:43.850Z,6.80
2018-12-05T10:34:07.828Z,7.07
2018-12-05T10:36:36.281Z,6.90
2018-12-05T10:39:06.919Z,7.23
2018-12-05T10:41:35.491Z,7.50
2018-12-05T10:44:03.910Z,6.90
2018-12-05T10:46:32.401Z,6.90
2018-12-05T10:49:00.929Z,6.87
2018-12-05T10:51:29.435Z,7.13
2018-12-05T10:53:57.893Z,7.00
2018-12-05T10:56:26.351Z,6.40
2018-12-05T10:58:55.098Z,6.70
2018-12-05T11:01:29.191Z,6.20
2018-12-05T11:03:57.707Z,7.00
2018-12-05T11:06:31.656Z,6.60
2018-12-05T11:09:05.346Z,6.50
2018-12-05T11:13:42.548Z,6.40
2018-12-05T11:16:16.865Z,6.53
2018-12-05T11:18:57.250Z,6.27
2018-12-05T11:21:32.237Z,6.37
2018-12-05T11:24:05.984Z,6.43
2018-12-05T11:26:36.531Z,6.67
2018-12-05T11:29:05.051Z,6.07
2018-12-05T11:31:33.520Z,6.03
2018-12-05T11:34:02.062Z,5.53
2018-12-05T11:36:30.616Z,5.87
2018-12-05T11:38:59.207Z,5.97
2018-12-05T11:41:27.724Z,5.47
2018-12-05T11:43:56.305Z,5.37
2018-12-05T11:46:24.745Z,5.67
2018-12-05T11:48:53.256Z,6.20
2018-12-05T11:51:21.780Z,6.17
2018-12-05T11:53:50.236Z,5.60
2018-12-05T11:56:18.755Z,5.60
2018-12-05T11:58:47.337Z,5.67
2018-12-05T12:01:15.824Z,5.37
2018-12-05T12:03:44.361Z,5.50
2018-12-05T12:06:13.305Z,6.20
2018-12-05T12:08:41.792Z,5.70
2018-12-05T12:11:10.479Z,5.90
2018-12-05T12:13:40.004Z,5.40
2018-12-05T12:16:08.531Z,5.40
2018-12-05T12:18:37.029Z,6.00
2018-12-05T12:21:05.470Z,6.03
2018-12-05T12:23:34.039Z,5.97
2018-12-05T12:26:02.583Z,5.90
2018-12-05T12:28:31.097Z,5.63
2018-12-05T12:30:59.610Z,6.10
2018-12-05T12:33:28.099Z,5.80
2018-12-05T12:35:56.547Z,6.10
2018-12-05T12:38:25.137Z,5.77
2018-12-05T12:40:53.570Z,5.53
2018-12-05T12:43:22.026Z,5.57
2018-12-05T12:45:50.516Z,6.10
2018-12-05T12:48:19.043Z,6.47
2018-12-05T12:50:47.558Z,6.40
2018-12-05T12:53:15.977Z,6.23
2018-12-05T12:55:44.711Z,6.43
2018-12-05T12:58:17.196Z,6.83
2018-12-05T13:00:47.443Z,6.03
2018-12-05T13:03:16.184Z,6.33
2018-12-05T13:05:44.889Z,5.90
2018-12-05T13:08:13.290Z,6.63
2018-12-05T13:10:41.820Z,6.03
2018-12-05T13:13:10.582Z,6.73
2018-12-05T13:15:39.067Z,6.90
2018-12-05T13:18:07.506Z,6.17
2018-12-05T13:20:35.957Z,6.57
2018-12-05T13:23:04.401Z,5.23
2018-12-05T13:25:32.924Z,6.07
2018-12-05T13:28:01.352Z,5.60
2018-12-05T13:30:29.799Z,5.30
2018-12-05T13:32:58.319Z,5.30
2018-12-05T13:35:28.154Z,5.90
2018-12-05T13:37:56.830Z,5.43
2018-12-05T13:40:25.331Z,5.73
2018-12-05T13:42:53.916Z,5.23
2018-12-05T13:45:23.128Z,5.40
2018-12-05T13:47:51.733Z,5.40
2018-12-05T13:50:20.202Z,5.10
2018-12-05T13:52:48.802Z,5.30
2018-12-05T13:55:17.307Z,5.27
2018-12-05T13:57:45.743Z,5.27
2018-12-05T14:00:14.204Z,5.13
2018-12-05T14:02:42.696Z,5.00
2018-12-05T14:05:11.135Z,5.40
2018-12-05T14:07:39.840Z,5.27
2018-12-05T14:10:08.267Z,4.67
2018-12-05T14:12:40.209Z,5.20
2018-12-05T14:15:09.938Z,5.30
2018-12-05T14:17:38.344Z,5.23
2018-12-05T14:20:08.447Z,5.87
2018-12-05T14:22:37.563Z,6.33
2018-12-05T14:25:07.820Z,5.80
2018-12-05T14:27:36.526Z,6.40
2018-12-05T14:30:07.140Z,6.00
2018-12-05T14:32:35.644Z,6.00
2018-12-05T14:35:04.120Z,6.30
2018-12-05T14:37:33.759Z,5.50
2018-12-05T14:40:02.210Z,6.10
2018-12-05T14:42:30.651Z,6.03
2018-12-05T14:44:59.218Z,6.57
2018-12-05T14:47:27.701Z,6.10
2018-12-05T14:49:56.147Z,6.03
2018-12-05T14:52:24.570Z,6.10
2018-12-05T14:54:53.079Z,6.27
2018-12-05T14:57:21.547Z,5.80
2018-12-05T14:59:50.018Z,6.20
2018-12-05T15:02:18.591Z,6.53
2018-12-05T15:04:48.099Z,6.43
2018-12-05T15:07:16.559Z,6.43
2018-12-05T15:09:45.029Z,6.60
2018-12-05T15:12:13.453Z,6.40
2018-12-05T15:14:41.931Z,6.70
2018-12-05T15:17:10.344Z,6.53
2018-12-05T15:19:38.783Z,6.27
2018-12-05T15:22:07.241Z,6.90
2018-12-05T15:24:35.695Z,7.00
2018-12-05T15:27:04.165Z,6.87
2018-12-05T15:29:32.602Z,6.80
2018-12-05T15:32:01.056Z,6.77
2018-12-05T15:34:29.511Z,7.17
2018-12-05T15:36:57.948Z,7.03
2018-12-05T15:39:26.382Z,7.20
2018-12-05T15:41:54.915Z,6.73
2018-12-05T15:44:23.331Z,7.40
2018-12-05T15:46:51.792Z,7.60
2018-12-05T15:49:20.230Z,7.20
2018-12-05T15:51:48.714Z,6.70
2018-12-05T15:54:17.152Z,8.00
2018-12-05T15:56:45.599Z,7.10
2018-12-05T15:59:14.064Z,7.27
2018-12-05T16:01:42.537Z,7.13
2018-12-05T16:04:11.048Z,7.60
2018-12-05T16:06:39.440Z,6.90
2018-12-05T16:09:08.245Z,7.53
2018-12-05T16:11:36.708Z,7.30
2018-12-05T16:14:05.171Z,6.97
2018-12-05T16:16:33.659Z,7.27
2018-12-05T16:19:02.164Z,6.97
2018-12-05T16:21:30.646Z,7.37
2018-12-05T16:23:59.105Z,7.60
2018-12-05T16:26:27.582Z,7.37
2018-12-05T16:28:56.064Z,7.20
2018-12-05T16:31:25.221Z,6.90
2018-12-05T16:33:53.694Z,7.70
2018-12-05T16:36:22.167Z,7.27
2018-12-05T16:38:50.684Z,7.00
2018-12-05T16:41:19.116Z,7.83
2018-12-05T16:43:47.574Z,7.33
2018-12-05T16:46:16.013Z,7.50
2018-12-05T16:48:44.455Z,7.53
2018-12-05T16:51:12.914Z,7.63
2018-12-05T16:53:41.404Z,7.40
2018-12-05T16:56:09.938Z,7.27
2018-12-05T16:58:38.424Z,7.20
2018-12-05T17:01:06.893Z,7.67
2018-12-05T17:03:35.373Z,7.60
2018-12-05T17:06:03.823Z,6.80
2018-12-05T17:08:32.290Z,8.10
2018-12-05T17:11:00.704Z,8.80
2018-12-05T17:13:29.177Z,7.80
2018-12-05T17:15:57.741Z,7.60
2018-12-05T17:18:26.235Z,7.83
2018-12-05T17:20:54.710Z,7.63
2018-12-05T17:23:23.204Z,8.50
2018-12-05T17:25:51.677Z,8.57
2018-12-05T17:28:20.148Z,7.90
2018-12-05T17:30:48.578Z,8.03
2018-12-05T17:33:17.048Z,7.80
2018-12-05T17:35:45.565Z,8.00
2018-12-05T17:38:14.052Z,8.20
2018-12-05T17:40:42.514Z,8.07
2018-12-05T17:43:11.038Z,8.17
2018-12-05T17:45:39.526Z,8.20
2018-12-05T17:48:07.989Z,8.30
2018-12-05T17:50:36.414Z,8.10
2018-12-05T17:53:04.884Z,8.50
2018-12-05T17:55:33.376Z,7.77
2018-12-05T17:58:01.834Z,8.27
2018-12-05T18:00:30.336Z,8.53
2018-12-05T18:02:58.816Z,8.03
2018-12-05T18:05:27.269Z,7.80
2018-12-05T18:07:55.704Z,8.07
2018-12-05T18:10:24.159Z,7.93
2018-12-05T18:12:52.614Z,7.93
2018-12-05T18:15:21.084Z,8.33
2018-12-05T18:17:49.570Z,8.37
2018-12-05T18:20:18.029Z,8.20
2018-12-05T18:22:46.474Z,8.70
2018-12-05T18:25:14.986Z,9.57
2018-12-05T18:27:43.458Z,9.77
2018-12-05T18:30:11.947Z,8.80
2018-12-05T18:32:40.423Z,9.37
2018-12-05T18:35:08.881Z,9.10
2018-12-05T18:37:37.323Z,9.70
2018-12-05T18:40:05.851Z,9.27
2018-12-05T18:42:34.309Z,9.77
2018-12-05T18:45:02.771Z,9.13
2018-12-05T18:47:31.280Z,8.83
2018-12-05T18:49:59.738Z,9.43
2018-12-05T18:52:28.213Z,8.73
2018-12-05T18:54:56.674Z,9.17
2018-12-05T18:57:25.169Z,9.37
2018-12-05T19:00:00.950Z,8.83
2018-12-05T19:02:24.064Z,8.50
2018-12-05T19:04:52.532Z,9.93
2018-12-05T19:07:21.011Z,9.27
2018-12-05T19:09:49.500Z,8.80
2018-12-05T19:12:17.980Z,8.83
2018-12-05T19:14:46.581Z,8.93
2018-12-05T19:17:15.079Z,9.00
2018-12-05T19:19:43.645Z,8.90
2018-12-05T19:22:12.080Z,9.07
2018-12-05T19:24:40.573Z,8.80
2018-12-05T19:27:09.111Z,8.20
2018-12-05T19:29:37.610Z,8.40
2018-12-05T19:32:06.064Z,8.73
2018-12-05T19:34:34.526Z,9.00
2018-12-05T19:37:02.997Z,8.93
2018-12-05T19:39:31.444Z,8.57
2018-12-05T19:41:59.895Z,7.97
2018-12-05T19:44:28.384Z,8.17
2018-12-05T19:46:56.876Z,8.67
2018-12-05T19:49:25.367Z,8.67
2018-12-05T19:51:53.806Z,8.70
2018-12-05T19:54:22.300Z,8.13
2018-12-05T19:56:50.749Z,7.63
2018-12-05T19:59:19.304Z,8.83
2018-12-05T20:01:47.771Z,8.47
2018-12-05T20:04:16.294Z,8.23
2018-12-05T20:06:44.781Z,8.27
2018-12-05T20:09:13.230Z,8.33
2018-12-05T20:11:41.750Z,8.30
2018-12-05T20:14:14.504Z,7.90
2018-12-05T20:16:43.095Z,8.20
2018-12-05T20:19:11.606Z,7.83
2018-12-05T20:21:40.097Z,7.40
2018-12-05T20:24:08.607Z,8.03
2018-12-05T20:26:37.102Z,7.63
2018-12-05T20:29:05.594Z,7.27
2018-12-05T20:31:34.120Z,7.80
2018-12-05T20:34:02.591Z,8.03
2018-12-05T20:36:31.088Z,8.10
2018-12-05T20:38:59.514Z,7.50
2018-12-05T20:41:31.486Z,7.90
2018-12-05T20:43:58.529Z,8.23
2018-12-05T20:46:27.042Z,8.20
2018-12-05T20:48:55.535Z,7.20
2018-12-05T20:51:24.060Z,7.50
2018-12-05T20:53:52.560Z,7.20
2018-12-05T20:56:21.032Z,7.47
2018-12-05T20:58:49.775Z,7.37
2018-12-05T21:01:18.232Z,7.33
2018-12-05T21:03:46.750Z,7.17
2018-12-05T21:06:15.263Z,7.80
2018-12-05T21:08:43.732Z,6.63
2018-12-05T21:11:12.228Z,6.67
2018-12-05T21:13:42.733Z,7.60
2018-12-05T21:16:11.262Z,7.33
2018-12-05T21:18:39.740Z,7.33
2018-12-05T21:21:08.178Z,7.13
2018-12-05T21:23:36.886Z,6.93
2018-12-05T21:26:05.362Z,7.43
2018-12-05T21:28:33.811Z,7.33
2018-12-05T21:31:02.324Z,7.47
2018-12-05T21:33:30.752Z,6.23
2018-12-05T21:35:59.289Z,7.00
2018-12-05T21:38:34.307Z,6.13
2018-12-05T21:41:02.776Z,6.40
2018-12-05T21:43:31.291Z,6.97
2018-12-05T21:45:59.765Z,7.83
2018-12-05T21:48:28.216Z,6.87
2018-12-05T21:50:56.667Z,7.30
2018-12-05T21:53:25.175Z,6.90
2018-12-05T21:55:53.673Z,7.13
2018-12-05T21:58:22.226Z,7.03
2018-12-05T22:00:50.731Z,6.90
2018-12-05T22:03:19.224Z,6.90
2018-12-05T22:05:47.722Z,6.90
2018-12-05T22:08:16.218Z,6.90
2018-12-05T22:10:44.710Z,6.53
2018-12-05T22:13:13.216Z,6.80
2018-12-05T22:15:41.682Z,7.20
2018-12-05T22:18:10.127Z,7.17
2018-12-05T22:20:38.639Z,7.43
2018-12-05T22:23:07.078Z,7.40
2018-12-05T22:25:35.544Z,6.60
2018-12-05T22:28:04.015Z,6.43
2018-12-05T22:30:32.495Z,6.57
2018-12-05T22:33:00.955Z,6.77
2018-12-05T22:35:29.421Z,6.83
2018-12-05T22:37:57.861Z,7.00
2018-12-05T22:40:26.310Z,7.30
2018-12-05T22:42:54.741Z,6.80
2018-12-05T22:45:23.247Z,6.10
2018-12-05T22:47:51.693Z,6.33
2018-12-05T22:50:20.169Z,6.57
2018-12-05T22:52:48.597Z,7.23
2018-12-05T22:55:16.994Z,6.07
2018-12-05T22:57:45.474Z,6.90
2018-12-05T23:00:18.312Z,7.00
2018-12-05T23:02:46.758Z,7.20
2018-12-05T23:05:15.167Z,7.03
2018-12-05T23:07:43.716Z,6.80
2018-12-05T23:10:12.180Z,6.60
2018-12-05T23:12:40.622Z,6.97
2018-12-05T23:15:09.115Z,7.00
2018-12-05T23:17:37.551Z,7.23
2018-12-05T23:20:06.548Z,7.10
2018-12-05T23:22:35.092Z,7.20
2018-12-05T23:25:03.957Z,6.67
2018-12-05T23:27:32.382Z,6.87
2018-12-05T23:30:00.839Z,6.97
2018-12-05T23:32:29.291Z,7.03
2018-12-05T23:34:57.743Z,6.70
2018-12-05T23:37:26.208Z,7.00
2018-12-05T23:39:54.633Z,7.40
2018-12-05T23:42:23.081Z,7.20
2018-12-05T23:44:51.498Z,6.97
2018-12-05T23:47:19.950Z,6.90
2018-12-05T23:49:48.421Z,7.67
2018-12-05T23:52:16.872Z,7.70
2018-12-05T23:54:45.283Z,7.20
2018-12-05T23:57:13.729Z,7.53
2018-12-05T23:59:42.174Z,8.50
